Time;durP1;ratioP1;P1;durP2;ratioP2;P2;SDS_P1;SDS_P2;PMS_P1;PMS_P2;Temp;Humidity;BMP_temperature;BMP_pressure;BME280_temperature;BME280_humidity;BME280_pressure;Samples;Min_cycle;Max_cycle;Signal;HPM_P1;HPM_P2
2022/08/22 00:00:11;;;;;;;232.50;9.97;;;15.50;99.90;;;;;;4416977;28;657588;-73
2022/08/22 00:03:11;;;;;;;488.43;13.80;;;15.60;99.90;;;;;;4426284;28;656714;-73
2022/08/22 00:06:06;;;;;;;520.67;13.00;;;15.50;99.90;;;;;;4434218;28;658034;-73
2022/08/22 00:09:05;;;;;;;612.57;14.33;;;15.50;99.90;;;;;;4438081;27;657842;-73
2022/08/22 00:11:56;;;;;;;541.13;13.93;;;15.60;99.90;;;;;;4407296;28;657832;-73
2022/08/22 00:14:49;;;;;;;483.57;12.80;;;15.60;99.90;;;;;;4437679;27;658500;-73
2022/08/22 00:17:42;;;;;;;435.57;11.83;;;15.60;99.90;;;;;;4408197;28;658089;-72
2022/08/22 00:20:32;;;;;;;274.00;9.57;;;15.60;99.90;;;;;;4443720;27;657884;-73
2022/08/22 00:23:22;;;;;;;86.43;8.20;;;15.70;99.90;;;;;;4438270;27;656926;-72
2022/08/22 00:26:14;;;;;;;312.60;9.13;;;15.60;99.90;;;;;;4441392;27;656055;-73
2022/08/22 00:29:03;;;;;;;252.15;10.27;;;15.70;99.90;;;;;;4452637;27;656231;-73
2022/08/22 00:31:55;;;;;;;248.07;8.80;;;15.60;99.90;;;;;;4447904;27;657578;-73
2022/08/22 00:34:46;;;;;;;409.17;11.23;;;15.60;99.90;;;;;;4439775;28;657264;-73
2022/08/22 00:37:34;;;;;;;251.33;8.80;;;15.70;99.90;;;;;;4444284;27;658349;-73
2022/08/22 00:40:31;;;;;;;400.40;11.27;;;15.70;99.90;;;;;;4442498;27;656364;-73
2022/08/22 00:44:04;;;;;;;151.80;8.43;;;15.80;99.90;;;;;;4441544;28;658339;-73
2022/08/22 00:47:11;;;;;;;325.52;9.35;;;15.70;99.90;;;;;;4374710;28;656977;-73
2022/08/22 00:50:15;;;;;;;124.53;7.10;;;15.80;99.90;;;;;;4432272;28;656681;-73
2022/08/22 00:53:16;;;;;;;399.13;10.43;;;15.80;99.90;;;;;;4404229;28;656964;-73
2022/08/22 00:56:15;;;;;;;445.53;12.93;;;15.70;99.90;;;;;;4437453;28;657598;-73
2022/08/22 00:59:24;;;;;;;332.53;9.87;;;15.60;99.90;;;;;;4414661;28;657777;-73
2022/08/22 01:02:22;;;;;;;451.43;11.83;;;15.70;99.90;;;;;;4413969;28;657164;-73
2022/08/22 01:05:43;;;;;;;401.70;11.80;;;15.70;99.90;;;;;;4439450;28;658346;-73
2022/08/22 01:08:39;;;;;;;327.50;10.80;;;15.70;99.90;;;;;;4417121;28;658127;-73
2022/08/22 01:11:45;;;;;;;494.13;13.07;;;15.80;99.90;;;;;;4439173;28;657986;-73
2022/08/22 01:14:39;;;;;;;549.17;14.43;;;15.80;99.90;;;;;;4434633;28;657912;-73
2022/08/22 01:18:04;;;;;;;635.87;14.57;;;15.80;99.90;;;;;;4436983;28;657528;-73
2022/08/22 01:21:30;;;;;;;622.35;13.20;;;15.80;99.90;;;;;;4413652;28;658077;-72
2022/08/22 01:25:17;;;;;;;567.73;14.33;;;15.80;99.90;;;;;;4411049;28;657881;-73
2022/08/22 01:28:46;;;;;;;516.20;13.53;;;15.70;99.90;;;;;;4402954;28;657429;-72
2022/08/22 01:32:03;;;;;;;570.15;14.23;;;15.70;99.90;;;;;;4395008;28;657277;-73
2022/08/22 01:35:17;;;;;;;245.63;9.80;;;15.70;99.90;;;;;;4424394;28;657550;-73
2022/08/22 01:38:24;;;;;;;388.80;10.87;;;15.60;99.90;;;;;;4433536;28;656351;-73
2022/08/22 01:41:24;;;;;;;187.13;9.13;;;15.70;99.90;;;;;;4411644;28;659282;-73
2022/08/22 01:44:22;;;;;;;311.23;10.33;;;15.60;99.90;;;;;;4438259;28;656726;-73
2022/08/22 01:47:11;;;;;;;213.60;9.23;;;15.60;99.90;;;;;;4436384;28;657941;-73
2022/08/22 01:50:02;;;;;;;248.70;7.87;;;15.70;99.90;;;;;;4423612;28;656757;-73
2022/08/22 01:52:52;;;;;;;260.00;9.17;;;15.80;99.90;;;;;;4425360;28;656962;-73
2022/08/22 01:55:45;;;;;;;298.23;8.37;;;15.70;99.90;;;;;;4451757;28;656836;-73
2022/08/22 01:58:35;;;;;;;351.80;9.07;;;15.70;99.90;;;;;;4440433;28;656981;-73
2022/08/22 02:01:28;;;;;;;379.50;10.10;;;15.60;99.90;;;;;;4438074;28;657278;-73
2022/08/22 02:04:18;;;;;;;383.57;9.83;;;15.70;99.90;;;;;;4412822;28;657996;-73
2022/08/22 02:07:08;;;;;;;271.90;7.70;;;15.80;99.90;;;;;;4443920;28;656495;-72
2022/08/22 02:10:04;;;;;;;307.60;10.37;;;15.80;99.90;;;;;;4452617;28;656831;-72
2022/08/22 02:12:56;;;;;;;216.07;8.37;;;15.80;99.90;;;;;;4417905;28;658139;-72
2022/08/22 02:15:47;;;;;;;241.67;8.57;;;15.70;99.90;;;;;;4441699;28;657432;-73
2022/08/22 02:18:43;;;;;;;330.33;10.33;;;15.70;99.90;;;;;;4437211;28;656734;-73
2022/08/22 02:21:41;;;;;;;245.63;8.70;;;15.70;99.90;;;;;;4419930;28;658407;-73
2022/08/22 02:24:35;;;;;;;181.20;7.67;;;15.80;99.90;;;;;;4439081;28;656851;-73
2022/08/22 02:27:31;;;;;;;277.13;9.03;;;15.80;99.90;;;;;;4416211;28;656825;-73
2022/08/22 02:30:19;;;;;;;133.30;7.27;;;15.90;99.90;;;;;;4440659;28;656994;-72
2022/08/22 02:33:08;;;;;;;51.00;6.03;;;15.90;99.90;;;;;;4442893;28;656596;-73
2022/08/22 02:35:59;;;;;;;172.43;8.20;;;15.80;99.90;;;;;;4445140;28;655154;-73
2022/08/22 02:38:52;;;;;;;163.33;8.03;;;15.90;99.90;;;;;;4441221;28;657175;-73
2022/08/22 02:41:47;;;;;;;79.23;6.47;;;16.00;99.90;;;;;;4437420;28;656435;-72
2022/08/22 02:44:36;;;;;;;77.83;6.77;;;16.00;99.90;;;;;;4437559;28;656080;-73
2022/08/22 02:47:27;;;;;;;121.63;7.07;;;16.00;99.90;;;;;;4441720;28;656592;-73
2022/08/22 02:50:17;;;;;;;124.40;7.97;;;16.00;99.90;;;;;;4429173;28;656211;-73
2022/08/22 02:53:08;;;;;;;51.03;6.73;;;16.00;99.90;;;;;;4434409;28;656780;-73
2022/08/22 02:55:59;;;;;;;29.60;6.30;;;16.00;99.90;;;;;;4418362;28;656055;-72
2022/08/22 02:58:53;;;;;;;76.67;7.10;;;16.00;99.90;;;;;;4440093;28;655516;-73
2022/08/22 03:01:43;;;;;;;55.83;6.87;;;16.00;99.90;;;;;;4418290;28;655741;-73
2022/08/22 03:04:51;;;;;;;41.53;6.47;;;16.00;99.90;;;;;;4449006;28;655594;-73
2022/08/22 03:07:40;;;;;;;42.67;6.40;;;16.10;99.90;;;;;;4439424;28;655907;-73
2022/08/22 03:10:30;;;;;;;25.57;6.60;;;16.20;99.90;;;;;;4435594;28;656065;-73
2022/08/22 03:13:23;;;;;;;25.47;6.80;;;16.20;99.90;;;;;;4444844;28;655846;-73
2022/08/22 03:16:13;;;;;;;39.23;7.90;;;16.20;99.90;;;;;;4420957;28;655573;-73
2022/08/22 03:19:06;;;;;;;29.43;8.37;;;16.30;99.90;;;;;;4444677;28;655982;-73
2022/08/22 03:22:00;;;;;;;29.60;9.10;;;16.30;99.90;;;;;;4438568;28;655836;-73
2022/08/22 03:24:50;;;;;;;43.47;8.23;;;16.30;99.90;;;;;;4416161;27;655433;-73
2022/08/22 03:27:40;;;;;;;27.07;8.53;;;16.40;99.90;;;;;;4448808;27;655944;-73
2022/08/22 03:30:33;;;;;;;25.10;9.30;;;16.40;99.90;;;;;;4448051;27;655932;-71
2022/08/22 03:33:21;;;;;;;35.43;9.83;;;16.40;99.90;;;;;;4442723;27;655526;-71
2022/08/22 03:36:22;;;;;;;44.23;10.67;;;16.40;99.90;;;;;;4465943;28;656180;-71
2022/08/22 03:39:13;;;;;;;33.07;10.90;;;16.50;99.90;;;;;;4439531;28;657012;-71
2022/08/22 03:42:19;;;;;;;36.60;11.27;;;16.50;99.90;;;;;;4421296;28;656676;-71
2022/08/22 03:45:21;;;;;;;45.07;11.97;;;16.50;99.90;;;;;;4418817;28;656808;-72
2022/08/22 03:48:43;;;;;;;49.17;12.50;;;16.50;99.90;;;;;;4435522;28;656796;-71
2022/08/22 03:51:40;;;;;;;63.87;11.73;;;16.40;99.90;;;;;;4414119;28;656732;-71
2022/08/22 03:54:56;;;;;;;74.33;12.87;;;16.40;99.90;;;;;;4401701;28;656847;-71
2022/08/22 03:58:14;;;;;;;107.70;12.90;;;16.40;99.90;;;;;;4428564;28;656293;-71
2022/08/22 04:01:42;;;;;;;61.70;11.63;;;16.40;99.90;;;;;;4417888;28;658436;-71
2022/08/22 04:04:43;;;;;;;47.77;11.73;;;16.50;99.90;;;;;;4429201;28;657045;-71
2022/08/22 04:08:07;;;;;;;33.23;11.13;;;16.40;99.90;;;;;;4412899;28;656806;-71
2022/08/22 04:11:25;;;;;;;27.53;11.77;;;16.60;99.90;;;;;;4438711;28;656642;-71
2022/08/22 04:14:34;;;;;;;28.17;11.77;;;16.70;99.90;;;;;;4414870;28;656796;-71
2022/08/22 04:17:34;;;;;;;30.10;11.80;;;16.80;99.90;;;;;;4443548;28;656938;-71
2022/08/22 04:20:32;;;;;;;27.97;13.00;;;16.90;99.90;;;;;;4441957;28;656250;-71
2022/08/22 04:23:43;;;;;;;22.53;12.03;;;16.90;99.90;;;;;;4439885;28;656671;-71
2022/08/22 04:26:36;;;;;;;29.43;13.53;;;17.10;99.90;;;;;;4425674;28;656747;-71
2022/08/22 04:29:27;;;;;;;27.27;13.97;;;17.20;99.90;;;;;;4443187;28;657213;-71
2022/08/22 04:32:17;;;;;;;31.70;14.50;;;17.30;99.90;;;;;;4435969;28;657511;-70
2022/08/22 04:35:07;;;;;;;29.20;13.73;;;17.30;99.90;;;;;;4439096;28;656263;-71
2022/08/22 04:37:57;;;;;;;29.70;13.80;;;17.40;99.90;;;;;;4456896;28;656534;-71
2022/08/22 04:40:49;;;;;;;32.40;15.63;;;17.40;99.90;;;;;;4458210;28;656456;-71
2022/08/22 04:43:37;;;;;;;27.43;14.50;;;17.30;99.90;;;;;;4411658;28;656536;-71
2022/08/22 04:46:27;;;;;;;60.57;13.13;;;17.40;99.90;;;;;;4457310;28;656978;-71
2022/08/22 04:49:16;;;;;;;71.10;11.93;;;17.30;99.90;;;;;;4457139;28;656003;-71
2022/08/22 04:52:07;;;;;;;29.37;12.03;;;17.30;99.90;;;;;;4420309;28;657481;-71
2022/08/22 04:54:57;;;;;;;31.23;11.97;;;17.20;99.90;;;;;;4435333;28;656390;-71
2022/08/22 04:57:49;;;;;;;28.00;11.90;;;17.30;99.90;;;;;;4442105;28;656518;-71
2022/08/22 05:00:39;;;;;;;23.53;10.87;;;17.20;99.90;;;;;;4419606;28;657007;-71
2022/08/22 05:03:27;;;;;;;33.38;12.00;;;17.30;99.90;;;;;;4445897;28;656438;-72
2022/08/22 05:06:17;;;;;;;22.23;11.30;;;17.30;99.90;;;;;;4457645;28;657074;-71
2022/08/22 05:09:05;;;;;;;26.40;11.17;;;17.40;99.90;;;;;;4440577;28;657137;-71
2022/08/22 05:11:54;;;;;;;25.27;11.13;;;17.40;99.90;;;;;;4435867;28;658235;-71
2022/08/22 05:14:45;;;;;;;29.23;11.47;;;17.40;99.90;;;;;;4442301;28;656612;-72
2022/08/22 05:17:32;;;;;;;27.70;11.77;;;17.40;99.90;;;;;;4441882;28;656793;-72
2022/08/22 05:20:21;;;;;;;24.07;12.30;;;17.50;99.90;;;;;;4463955;28;657138;-72
2022/08/22 05:23:11;;;;;;;50.50;13.37;;;17.40;99.90;;;;;;4439810;28;657051;-72
2022/08/22 05:26:00;;;;;;;56.23;13.43;;;17.30;99.90;;;;;;4439740;28;656633;-72
2022/08/22 05:28:47;;;;;;;22.83;12.73;;;17.20;99.90;;;;;;4442351;28;657538;-72
2022/08/22 05:31:37;;;;;;;26.37;13.37;;;17.20;99.90;;;;;;4459917;28;656583;-71
2022/08/22 05:34:27;;;;;;;28.07;12.57;;;17.20;99.90;;;;;;4467936;28;656068;-70
2022/08/22 05:37:16;;;;;;;22.20;12.73;;;17.30;99.90;;;;;;4441675;28;656803;-70
2022/08/22 05:40:04;;;;;;;21.77;12.47;;;17.40;99.90;;;;;;4434058;28;656684;-70
2022/08/22 05:42:52;;;;;;;24.00;12.73;;;17.50;99.90;;;;;;4440410;28;656715;-70
2022/08/22 05:45:39;;;;;;;21.93;13.73;;;17.50;99.90;;;;;;4463108;28;656918;-70
2022/08/22 05:48:37;;;;;;;23.80;13.13;;;17.50;99.90;;;;;;4444055;28;656605;-70
2022/08/22 05:51:25;;;;;;;22.67;13.23;;;17.60;99.90;;;;;;4423109;28;657010;-70
2022/08/22 05:54:13;;;;;;;26.87;16.37;;;17.70;99.90;;;;;;4434633;28;657342;-70
2022/08/22 05:57:07;;;;;;;26.67;15.03;;;17.70;99.90;;;;;;4433985;28;658229;-70
2022/08/22 05:59:57;;;;;;;30.30;18.57;;;17.70;99.90;;;;;;4433279;28;657880;-71
2022/08/22 06:02:52;;;;;;;45.97;23.13;;;17.60;99.90;;;;;;4445182;27;656607;-70
2022/08/22 06:05:41;;;;;;;39.03;21.83;;;17.70;99.90;;;;;;4429802;27;656980;-70
2022/08/22 06:08:31;;;;;;;38.20;21.60;;;17.80;99.90;;;;;;4438720;28;657290;-70
2022/08/22 06:11:20;;;;;;;38.60;24.93;;;18.00;99.90;;;;;;4446561;27;657542;-70
2022/08/22 06:14:13;;;;;;;40.43;25.17;;;18.00;99.90;;;;;;4429759;28;657124;-70
2022/08/22 06:17:05;;;;;;;45.77;28.00;;;18.10;99.90;;;;;;4445004;27;658258;-70
2022/08/22 06:19:52;;;;;;;46.07;25.77;;;18.20;99.90;;;;;;4439387;27;657213;-70
2022/08/22 06:22:45;;;;;;;44.93;25.23;;;18.30;99.90;;;;;;4449468;27;656288;-70
2022/08/22 06:25:33;;;;;;;40.47;26.30;;;18.50;99.90;;;;;;4441175;27;656609;-70
2022/08/22 06:28:22;;;;;;;39.73;24.70;;;18.50;99.90;;;;;;4448955;27;656168;-70
2022/08/22 06:31:11;;;;;;;37.73;23.67;;;18.60;99.90;;;;;;4456931;28;656391;-70
2022/08/22 06:34:04;;;;;;;37.00;25.87;;;18.60;99.90;;;;;;4419512;28;656928;-70
2022/08/22 06:36:53;;;;;;;41.53;25.43;;;18.70;99.90;;;;;;4377024;27;657034;-70
2022/08/22 06:39:47;;;;;;;43.03;25.37;;;18.80;99.90;;;;;;4408556;27;656721;-70
2022/08/22 06:42:38;;;;;;;41.70;24.37;;;18.70;99.90;;;;;;4407359;27;656668;-70
2022/08/22 06:45:28;;;;;;;37.00;24.60;;;18.80;99.90;;;;;;4392737;27;656884;-70
2022/08/22 06:48:18;;;;;;;40.17;24.40;;;18.80;99.90;;;;;;4393000;27;656899;-70
2022/08/22 06:51:07;;;;;;;42.17;25.73;;;18.70;99.90;;;;;;4392074;27;656316;-70
2022/08/22 06:53:56;;;;;;;42.67;25.10;;;18.80;99.90;;;;;;4437449;27;656607;-69
2022/08/22 06:56:46;;;;;;;37.00;24.97;;;18.90;99.90;;;;;;4432124;28;657434;-70
2022/08/22 06:59:35;;;;;;;41.07;25.67;;;18.90;99.90;;;;;;4437760;27;656934;-70
2022/08/22 07:02:25;;;;;;;40.73;26.53;;;19.00;99.90;;;;;;4442424;27;656901;-70
2022/08/22 07:05:15;;;;;;;42.37;27.03;;;19.00;99.90;;;;;;4436281;27;657740;-70
2022/08/22 07:08:05;;;;;;;41.50;25.70;;;19.00;99.90;;;;;;4430395;28;657377;-70
2022/08/22 07:10:58;;;;;;;39.20;25.43;;;19.00;99.90;;;;;;4439924;27;656793;-70
2022/08/22 07:13:50;;;;;;;39.00;25.10;;;19.00;99.90;;;;;;4415512;27;656932;-70
2022/08/22 07:16:41;;;;;;;43.93;26.20;;;19.10;99.90;;;;;;4440252;27;657025;-70
2022/08/22 07:19:29;;;;;;;41.27;26.43;;;19.10;99.90;;;;;;4438652;27;658462;-69
2022/08/22 07:22:24;;;;;;;47.30;27.00;;;19.10;99.90;;;;;;4440437;27;657182;-70
2022/08/22 07:25:12;;;;;;;42.67;26.10;;;19.20;99.90;;;;;;4440203;28;656484;-70
2022/08/22 07:28:13;;;;;;;42.97;27.83;;;19.20;99.90;;;;;;4454166;28;656616;-70
2022/08/22 07:31:05;;;;;;;46.03;28.23;;;19.20;99.90;;;;;;4421700;28;656384;-70
2022/08/22 07:33:53;;;;;;;47.73;29.27;;;19.20;99.90;;;;;;4430612;28;657577;-70
2022/08/22 07:36:44;;;;;;;49.53;30.20;;;19.20;99.90;;;;;;4450843;28;656807;-70
2022/08/22 07:39:33;;;;;;;48.07;28.83;;;19.30;99.90;;;;;;4438647;28;656715;-70
2022/08/22 07:42:22;;;;;;;47.47;29.23;;;19.40;99.90;;;;;;4445384;28;656720;-70
2022/08/22 07:45:10;;;;;;;45.33;28.27;;;19.50;99.90;;;;;;4456583;28;656651;-70
2022/08/22 07:48:06;;;;;;;43.37;28.23;;;19.50;99.90;;;;;;4435399;28;658311;-70
2022/08/22 07:51:01;;;;;;;41.60;26.40;;;19.60;99.90;;;;;;4422696;28;657087;-70
2022/08/22 07:53:50;;;;;;;50.70;30.07;;;19.70;99.90;;;;;;4434637;28;657000;-70
2022/08/22 07:56:41;;;;;;;43.00;28.60;;;19.70;99.90;;;;;;4435155;28;656995;-70
2022/08/22 07:59:28;;;;;;;49.73;28.80;;;19.70;99.90;;;;;;4433402;28;657419;-69
2022/08/22 08:02:15;;;;;;;47.63;27.63;;;19.60;99.90;;;;;;4442126;28;657033;-70
2022/08/22 08:05:05;;;;;;;49.53;29.50;;;19.40;99.90;;;;;;4450274;28;657116;-68
2022/08/22 08:07:53;;;;;;;46.90;27.73;;;19.40;99.90;;;;;;4433171;28;658314;-69
2022/08/22 08:10:40;;;;;;;46.37;28.07;;;19.40;99.90;;;;;;4453404;28;657365;-69
2022/08/22 08:13:29;;;;;;;46.57;28.07;;;19.40;99.90;;;;;;4460568;28;656613;-68
2022/08/22 08:16:18;;;;;;;44.13;26.73;;;19.50;99.90;;;;;;4435240;28;656270;-69
2022/08/22 08:19:06;;;;;;;45.10;27.70;;;19.60;99.90;;;;;;4445470;28;656651;-69
2022/08/22 08:21:55;;;;;;;41.90;26.17;;;19.60;99.90;;;;;;4458995;28;657491;-69
2022/08/22 08:24:42;;;;;;;46.87;27.57;;;19.70;99.90;;;;;;4430606;28;657569;-69
2022/08/22 08:30:39;;;;;;;44.13;27.10;;;19.80;99.90;;;;;;4417207;27;657201;-69
2022/08/22 08:33:27;;;;;;;44.60;28.53;;;19.90;99.90;;;;;;4442332;27;656477;-68
2022/08/22 08:36:35;;;;;;;44.37;27.57;;;20.00;99.90;;;;;;4456148;27;657088;-69
2022/08/22 08:39:26;;;;;;;43.00;26.77;;;20.20;99.90;;;;;;4442901;27;656900;-69
2022/08/22 08:43:25;;;;;;;38.57;25.17;;;20.50;99.90;;;;;;4435796;28;656648;-69
2022/08/22 08:46:07;;;;;;;37.83;24.20;;;20.50;99.90;;;;;;4414914;27;657291;-69
2022/08/22 08:49:08;;;;;;;40.77;23.83;;;20.60;99.90;;;;;;4420631;28;656849;-69
2022/08/22 08:52:11;;;;;;;35.53;22.43;;;20.60;99.90;;;;;;4420728;28;657151;-69
2022/08/22 08:55:07;;;;;;;34.23;22.23;;;20.50;99.90;;;;;;4425406;28;657478;-69
2022/08/22 08:58:00;;;;;;;32.87;21.60;;;20.40;99.90;;;;;;4415777;28;657368;-69
2022/08/22 09:00:54;;;;;;;36.13;22.83;;;20.40;99.90;;;;;;4421583;28;656497;-69
2022/08/22 09:04:06;;;;;;;36.73;21.70;;;20.40;99.90;;;;;;4393663;28;656932;-69
2022/08/22 09:07:05;;;;;;;32.57;21.20;;;20.20;99.90;;;;;;4416611;28;656328;-69
2022/08/22 09:10:11;;;;;;;36.73;23.50;;;20.20;99.90;;;;;;4395545;28;657759;-69
2022/08/22 09:13:09;;;;;;;39.30;24.27;;;20.30;99.90;;;;;;4415933;28;657458;-69
2022/08/22 09:16:05;;;;;;;43.23;27.93;;;20.50;99.90;;;;;;4423899;28;656219;-69
2022/08/22 09:19:12;;;;;;;45.97;28.10;;;20.70;99.90;;;;;;4428745;28;656141;-69
2022/08/22 09:22:10;;;;;;;40.80;24.93;;;20.80;99.90;;;;;;4421440;28;656960;-69
2022/08/22 09:25:17;;;;;;;48.60;29.67;;;20.90;99.90;;;;;;4417587;28;656572;-69
2022/08/22 09:28:10;;;;;;;46.07;27.87;;;21.10;99.90;;;;;;4419096;28;656437;-69
2022/08/22 09:31:07;;;;;;;43.47;28.03;;;21.20;99.90;;;;;;4419065;28;656619;-69
2022/08/22 09:33:58;;;;;;;42.00;26.63;;;21.20;99.90;;;;;;4417458;28;656425;-69
2022/08/22 09:36:54;;;;;;;39.03;24.73;;;21.30;99.90;;;;;;4425802;28;656556;-69
2022/08/22 09:39:47;;;;;;;38.53;22.67;;;21.40;99.90;;;;;;4395948;28;657399;-69
2022/08/22 09:42:41;;;;;;;30.23;20.67;;;21.60;99.90;;;;;;4418047;28;657380;-69
2022/08/22 09:45:50;;;;;;;29.23;19.60;;;21.60;99.90;;;;;;4417991;28;656614;-68
2022/08/22 09:48:56;;;;;;;28.43;19.57;;;21.40;99.90;;;;;;4406946;28;657120;-69
2022/08/22 09:51:47;;;;;;;31.70;19.93;;;21.30;99.90;;;;;;4402923;28;657173;-69
2022/08/22 09:54:36;;;;;;;30.93;20.63;;;21.10;99.90;;;;;;4417236;28;656823;-69
2022/08/22 09:57:28;;;;;;;28.50;19.60;;;21.10;99.90;;;;;;4424611;28;656602;-69
2022/08/22 10:00:19;;;;;;;31.23;21.77;;;21.10;99.90;;;;;;4404317;28;657019;-69
2022/08/22 10:03:10;;;;;;;32.40;21.53;;;21.10;99.90;;;;;;4418168;28;656967;-68
2022/08/22 10:06:00;;;;;;;37.83;23.00;;;21.10;99.90;;;;;;4419202;28;656779;-68
2022/08/22 10:08:49;;;;;;;35.33;24.63;;;21.10;99.90;;;;;;4421194;28;656921;-68
2022/08/22 10:11:39;;;;;;;33.17;24.30;;;21.10;99.90;;;;;;4424929;28;656850;-68
2022/08/22 10:14:29;;;;;;;36.87;24.43;;;20.80;99.90;;;;;;4415919;28;656182;-68
2022/08/22 10:17:18;;;;;;;31.03;21.90;;;20.90;99.90;;;;;;4421040;28;656643;-68
2022/08/22 10:20:11;;;;;;;31.80;22.83;;;21.00;99.90;;;;;;4409988;28;657180;-68
2022/08/22 10:23:04;;;;;;;32.97;22.53;;;21.00;99.90;;;;;;4409154;28;657060;-68
2022/08/22 10:25:52;;;;;;;32.53;22.83;;;21.10;99.90;;;;;;4411466;28;656869;-68
2022/08/22 10:28:43;;;;;;;35.17;23.27;;;21.10;99.90;;;;;;4430276;28;656819;-68
2022/08/22 10:31:34;;;;;;;38.00;23.37;;;21.00;99.90;;;;;;4390640;28;656603;-68
2022/08/22 10:34:25;;;;;;;34.27;23.03;;;20.90;99.90;;;;;;4413126;28;657064;-69
2022/08/22 10:37:17;;;;;;;35.77;22.43;;;20.80;99.90;;;;;;4406671;28;657155;-68
2022/08/22 10:40:08;;;;;;;35.20;23.70;;;20.80;99.90;;;;;;4410499;28;657136;-68
2022/08/22 10:42:57;;;;;;;38.40;23.37;;;20.70;99.90;;;;;;4396794;28;656991;-68
2022/08/22 10:45:46;;;;;;;36.13;24.20;;;20.40;99.90;;;;;;4431346;28;656039;-68
2022/08/22 10:48:42;;;;;;;37.83;24.87;;;20.40;99.90;;;;;;4430486;27;657296;-68
2022/08/22 10:51:36;;;;;;;42.53;27.00;;;20.40;99.90;;;;;;4415347;27;657713;-68
2022/08/22 10:54:39;;;;;;;42.17;23.43;;;20.40;99.90;;;;;;4442030;27;656632;-68
2022/08/22 10:57:40;;;;;;;38.47;24.60;;;20.50;99.90;;;;;;4436516;27;657398;-69
2022/08/22 11:00:38;;;;;;;40.40;23.87;;;20.40;99.90;;;;;;4439736;27;657288;-68
2022/08/22 11:03:26;;;;;;;41.77;23.60;;;20.40;99.90;;;;;;4415760;27;657337;-68
2022/08/22 11:06:17;;;;;;;35.77;23.60;;;20.60;99.90;;;;;;4449361;28;656663;-68
2022/08/22 11:09:21;;;;;;;35.07;21.77;;;20.50;99.90;;;;;;4433160;28;656568;-68
2022/08/22 11:12:13;;;;;;;31.10;20.73;;;20.40;99.90;;;;;;4438648;27;657037;-68
2022/08/22 11:15:04;;;;;;;34.73;20.53;;;20.20;99.90;;;;;;4430355;27;656696;-69
2022/08/22 11:18:13;;;;;;;32.53;20.53;;;20.00;99.90;;;;;;4441751;27;656544;-70
2022/08/22 11:21:02;;;;;;;31.73;20.47;;;20.10;99.90;;;;;;4419361;27;656848;-68
2022/08/22 11:23:54;;;;;;;29.60;19.30;;;20.20;99.90;;;;;;4457731;27;656208;-69
2022/08/22 11:26:44;;;;;;;31.10;19.93;;;20.40;99.90;;;;;;4410874;28;657645;-70
2022/08/22 11:29:38;;;;;;;29.20;19.67;;;20.50;99.90;;;;;;4436899;27;656501;-69
2022/08/22 11:32:39;;;;;;;29.53;18.97;;;20.60;99.90;;;;;;4412874;28;656936;-69
2022/08/22 11:35:30;;;;;;;28.23;19.23;;;20.80;99.90;;;;;;4411295;28;656951;-68
2022/08/22 11:38:23;;;;;;;29.37;20.10;;;21.00;99.90;;;;;;4438941;28;657661;-69
2022/08/22 11:41:15;;;;;;;30.97;21.07;;;20.90;99.90;;;;;;4413395;28;656342;-69
2022/08/22 11:44:08;;;;;;;26.10;19.37;;;21.00;99.90;;;;;;4433340;28;656962;-69
2022/08/22 11:46:56;;;;;;;30.47;19.47;;;21.60;99.90;;;;;;4417718;28;656808;-69
2022/08/22 11:49:51;;;;;;;28.23;19.90;;;22.40;99.90;;;;;;4462892;28;656740;-69
2022/08/22 11:52:50;;;;;;;27.17;19.03;;;23.20;99.90;;;;;;4436578;28;656667;-69
2022/08/22 11:55:38;;;;;;;26.63;19.37;;;24.00;99.90;;;;;;4409336;28;657723;-70
2022/08/22 11:58:30;;;;;;;20.37;14.60;;;24.30;99.90;;;;;;4434853;28;656794;-70
2022/08/22 12:01:20;;;;;;;16.67;13.13;;;24.70;99.90;;;;;;4439454;28;657380;-70
2022/08/22 12:04:10;;;;;;;21.60;14.57;;;25.00;99.90;;;;;;4439171;27;657596;-70
2022/08/22 12:07:00;;;;;;;17.00;11.82;;;25.00;99.90;;;;;;4442709;27;657377;-69
2022/08/22 12:09:50;;;;;;;14.05;11.25;;;25.20;99.90;;;;;;4434128;27;657671;-69
2022/08/22 12:12:47;;;;;;;14.30;10.65;;;24.90;99.90;;;;;;4442512;27;657324;-70
2022/08/22 12:15:38;;;;;;;15.05;10.32;;;24.70;99.90;;;;;;4432436;27;657721;-70
2022/08/22 12:18:37;;;;;;;14.80;10.05;;;25.40;99.90;;;;;;4436917;27;656617;-70
2022/08/22 12:21:52;;;;;;;14.38;9.98;;;26.10;99.90;;;;;;4442406;28;656859;-70
2022/08/22 12:24:50;;;;;;;14.93;11.02;;;25.90;99.90;;;;;;4443505;28;656100;-70
2022/08/22 12:27:46;;;;;;;14.38;10.60;;;25.80;99.90;;;;;;4413105;27;657516;-70
2022/08/22 12:30:35;;;;;;;18.63;12.38;;;26.20;99.90;;;;;;4439956;27;656905;-70
2022/08/22 12:33:47;;;;;;;17.88;11.30;;;26.60;99.90;;;;;;4442264;27;657737;-69
2022/08/22 12:36:53;;;;;;;18.55;9.95;;;26.50;99.90;;;;;;4441218;27;656587;-70
2022/08/22 12:40:07;;;;;;;16.45;9.57;;;26.10;99.90;;;;;;4420160;27;655813;-69
2022/08/22 12:43:15;;;;;;;16.80;9.85;;;25.90;99.90;;;;;;4433498;28;655439;-69
2022/08/22 12:46:14;;;;;;;13.38;9.43;;;25.70;99.90;;;;;;4415398;28;655669;-70
2022/08/22 12:49:11;;;;;;;13.68;9.68;;;25.70;99.90;;;;;;4442439;28;656157;-70
2022/08/22 12:52:02;;;;;;;12.27;9.48;;;25.40;99.90;;;;;;4434878;28;656274;-70
2022/08/22 12:55:14;;;;;;;13.30;9.60;;;25.10;99.90;;;;;;4437211;28;655941;-70
2022/08/22 12:58:06;;;;;;;16.50;9.70;;;25.20;99.90;;;;;;4436567;28;655229;-70
2022/08/22 13:00:56;;;;;;;31.67;18.27;;;24.70;99.90;;;;;;4438534;28;656207;-70
2022/08/22 13:03:44;;;;;;;27.50;17.35;;;25.10;99.90;;;;;;4437435;28;657205;-70
2022/08/22 13:06:53;;;;;;;23.38;16.48;;;25.50;99.90;;;;;;4443714;28;656774;-69
2022/08/22 13:09:41;;;;;;;21.75;13.82;;;25.90;99.90;;;;;;4423032;27;656477;-69
2022/08/22 13:12:31;;;;;;;22.42;14.95;;;26.30;99.90;;;;;;4464044;28;657529;-69
2022/08/22 13:15:28;;;;;;;22.00;15.45;;;25.80;99.90;;;;;;4436008;28;657086;-69
2022/08/22 13:18:18;;;;;;;23.83;16.35;;;26.30;99.90;;;;;;4413331;28;657024;-69
2022/08/22 13:21:07;;;;;;;22.33;16.55;;;25.80;99.90;;;;;;4440528;28;656773;-69
2022/08/22 13:23:56;;;;;;;22.83;15.55;;;25.20;99.90;;;;;;4457805;28;656161;-69
2022/08/22 13:26:46;;;;;;;26.73;17.23;;;24.90;99.90;;;;;;4438124;28;658387;-69
2022/08/22 13:29:39;;;;;;;28.63;18.80;;;23.60;99.90;;;;;;4443164;28;656729;-69
2022/08/22 13:32:30;;;;;;;26.45;16.77;;;23.70;99.90;;;;;;4417647;28;657875;-69
2022/08/22 13:35:22;;;;;;;25.27;17.73;;;23.80;99.90;;;;;;4435054;27;657596;-69
2022/08/22 13:38:12;;;;;;;21.90;15.60;;;23.70;99.90;;;;;;4435778;28;656956;-69
2022/08/22 13:41:00;;;;;;;21.67;16.23;;;24.60;99.90;;;;;;4436397;28;656610;-70
2022/08/22 13:43:59;;;;;;;23.58;14.25;;;24.60;99.90;;;;;;4432985;28;658200;-69
2022/08/22 13:46:46;;;;;;;24.88;15.63;;;25.50;99.90;;;;;;4439609;28;656852;-70
2022/08/22 13:49:35;;;;;;;22.90;14.57;;;25.80;99.90;;;;;;4459128;28;657252;-69
2022/08/22 13:52:26;;;;;;;22.60;14.88;;;25.90;99.90;;;;;;4441888;28;657414;-70
2022/08/22 13:55:16;;;;;;;23.35;14.20;;;25.90;99.90;;;;;;4436278;28;656471;-70
2022/08/22 13:58:07;;;;;;;26.15;15.18;;;25.50;99.90;;;;;;4436332;28;657034;-70
2022/08/22 14:01:18;;;;;;;19.15;14.63;;;25.70;99.90;;;;;;4442343;28;656562;-70
2022/08/22 14:04:12;;;;;;;20.83;14.20;;;25.50;99.90;;;;;;4414279;28;656650;-69
2022/08/22 14:07:17;;;;;;;23.55;14.45;;;25.30;99.90;;;;;;4435231;28;657580;-69
2022/08/22 14:10:06;;;;;;;26.42;16.52;;;24.30;99.90;;;;;;4434451;28;657003;-69
2022/08/22 14:13:32;;;;;;;25.45;17.17;;;22.70;99.90;;;;;;4437840;28;657588;-69
2022/08/22 14:16:22;;;;;;;23.90;17.63;;;22.60;99.90;;;;;;4459259;28;656678;-69
2022/08/22 14:19:10;;;;;;;25.30;17.73;;;22.50;99.90;;;;;;4459554;28;656361;-69
2022/08/22 14:21:58;;;;;;;24.65;16.40;;;22.60;99.90;;;;;;4431243;28;657625;-69
2022/08/22 14:24:47;;;;;;;22.57;17.50;;;22.70;99.90;;;;;;4441137;28;657034;-69
2022/08/22 14:27:37;;;;;;;31.67;18.50;;;22.70;99.90;;;;;;4463733;28;656062;-69
2022/08/22 14:30:27;;;;;;;24.87;18.70;;;22.70;99.90;;;;;;4437038;28;656671;-70
2022/08/22 14:33:18;;;;;;;31.20;21.03;;;22.60;99.90;;;;;;4434443;28;656860;-68
2022/08/22 14:36:11;;;;;;;34.63;20.33;;;22.60;99.90;;;;;;4439156;28;656676;-69
2022/08/22 14:39:02;;;;;;;31.07;22.20;;;22.30;99.90;;;;;;4434089;27;657093;-69